createdAt,value
2024-02-26T00:01:22.108Z,7.97
2024-02-26T00:03:50.521Z,7.32
2024-02-26T00:06:19.430Z,7.57
2024-02-26T00:08:47.998Z,7.57
2024-02-26T00:11:16.613Z,7.63
2024-02-26T00:13:46.312Z,7.50
2024-02-26T00:16:14.658Z,8.83
2024-02-26T00:18:43.091Z,7.97
2024-02-26T00:21:11.437Z,7.78
2024-02-26T00:23:39.829Z,8.65
2024-02-26T00:26:08.876Z,7.60
2024-02-26T00:28:37.240Z,7.07
2024-02-26T00:31:07.130Z,7.90
2024-02-26T00:33:34.754Z,7.88
2024-02-26T00:36:03.261Z,7.75
2024-02-26T00:38:31.667Z,7.68
2024-02-26T00:41:00.061Z,7.28
2024-02-26T00:43:28.460Z,7.80
2024-02-26T00:45:56.809Z,7.43
2024-02-26T00:48:27.779Z,7.03
2024-02-26T00:50:56.968Z,7.65
2024-02-26T00:53:26.059Z,6.97
2024-02-26T00:55:54.503Z,7.32
2024-02-26T00:58:22.913Z,7.10
2024-02-26T01:00:51.375Z,6.75
2024-02-26T01:03:20.420Z,6.72
2024-02-26T01:05:50.587Z,7.53
2024-02-26T01:08:19.045Z,7.18
2024-02-26T01:10:47.437Z,7.45
2024-02-26T01:13:16.035Z,7.15
2024-02-26T01:15:44.986Z,7.85
2024-02-26T01:18:14.631Z,7.90
2024-02-26T01:20:43.327Z,7.15
2024-02-26T01:23:14.504Z,7.97
2024-02-26T01:25:44.286Z,8.23
2024-02-26T01:28:12.679Z,7.20
2024-02-26T01:30:40.996Z,7.70
2024-02-26T01:33:09.896Z,7.63
2024-02-26T01:35:38.435Z,7.43
2024-02-26T01:38:06.971Z,7.13
2024-02-26T01:40:37.566Z,8.07
2024-02-26T01:45:34.589Z,7.82
2024-02-26T01:48:04.300Z,7.88
2024-02-26T01:50:32.906Z,8.63
2024-02-26T01:53:01.355Z,8.45
2024-02-26T01:55:29.887Z,8.25
2024-02-26T01:58:00.158Z,7.65
2024-02-26T02:00:29.122Z,8.00
2024-02-26T02:02:57.752Z,8.10
2024-02-26T02:05:27.172Z,8.18
2024-02-26T02:07:56.574Z,8.27
2024-02-26T02:10:26.823Z,8.73
2024-02-26T02:12:55.455Z,8.82
2024-02-26T02:15:25.587Z,8.82
2024-02-26T02:17:54.147Z,8.85
2024-02-26T02:20:28.540Z,9.35
2024-02-26T02:22:56.948Z,9.73
2024-02-26T02:25:25.400Z,9.20
2024-02-26T02:27:55.837Z,9.48
2024-02-26T02:30:27.473Z,9.45
2024-02-26T02:32:56.369Z,9.75
2024-02-26T02:35:24.741Z,9.90
2024-02-26T02:37:55.391Z,10.02
2024-02-26T02:42:52.042Z,10.05
2024-02-26T02:45:20.444Z,10.27
2024-02-26T02:47:49.040Z,10.75
2024-02-26T02:50:17.584Z,10.57
2024-02-26T02:52:45.995Z,10.75
2024-02-26T02:55:16.203Z,10.75
2024-02-26T02:57:45.784Z,10.07
2024-02-26T03:00:15.362Z,10.68
2024-02-26T03:02:43.998Z,10.53
2024-02-26T03:05:11.706Z,11.35
2024-02-26T03:07:40.097Z,10.77
2024-02-26T03:10:09.769Z,11.10
2024-02-26T03:12:39.584Z,11.40
2024-02-26T03:15:09.217Z,10.40
2024-02-26T03:17:37.693Z,10.77
2024-02-26T03:20:10.703Z,11.50
2024-02-26T03:22:41.369Z,11.05
2024-02-26T03:27:40.125Z,11.35
2024-02-26T03:30:10.099Z,10.37
2024-02-26T03:32:38.659Z,10.52
2024-02-26T03:35:08.577Z,10.02
2024-02-26T03:37:36.973Z,11.55
2024-02-26T03:40:07.115Z,11.45
2024-02-26T03:42:34.465Z,10.95
2024-02-26T03:45:04.567Z,11.32
2024-02-26T03:47:32.993Z,10.85
2024-02-26T03:50:01.626Z,11.00
2024-02-26T03:52:29.132Z,11.15
2024-02-26T03:54:57.527Z,11.15
2024-02-26T03:57:25.934Z,11.07
2024-02-26T03:59:54.860Z,10.82
2024-02-26T04:02:25.053Z,10.80
2024-02-26T04:04:53.834Z,11.20
2024-02-26T04:07:22.354Z,11.25
2024-02-26T04:09:50.785Z,11.43
2024-02-26T04:12:19.868Z,11.43
2024-02-26T04:14:48.317Z,11.40
2024-02-26T04:17:16.653Z,11.93
2024-02-26T04:19:46.505Z,12.60
2024-02-26T04:22:14.991Z,12.85
2024-02-26T04:24:43.604Z,13.05
2024-02-26T04:27:11.921Z,13.60
2024-02-26T04:29:40.392Z,12.63
2024-02-26T04:32:08.999Z,13.70
2024-02-26T04:34:38.018Z,13.45
2024-02-26T04:37:07.844Z,12.98
2024-02-26T04:39:36.515Z,13.23
2024-02-26T04:42:05.765Z,13.45
2024-02-26T04:44:34.108Z,13.65
2024-02-26T04:47:02.896Z,14.07
2024-02-26T04:49:31.525Z,13.77
2024-02-26T04:51:58.945Z,13.63
2024-02-26T04:54:28.749Z,14.00
2024-02-26T04:56:57.136Z,14.05
2024-02-26T04:59:25.557Z,13.77
2024-02-26T05:01:54.154Z,13.25
2024-02-26T05:04:22.697Z,13.80
2024-02-26T05:06:51.284Z,13.43
2024-02-26T05:09:19.788Z,12.95
2024-02-26T05:11:49.549Z,13.57
2024-02-26T05:14:17.945Z,13.63
2024-02-26T05:16:46.339Z,14.02
2024-02-26T05:19:15.224Z,13.73
2024-02-26T05:21:45.230Z,13.50
2024-02-26T05:24:13.661Z,13.95
2024-02-26T05:26:42.202Z,13.30
2024-02-26T05:29:12.590Z,13.70
2024-02-26T05:31:40.951Z,14.57
2024-02-26T05:34:09.315Z,14.40
2024-02-26T05:36:37.716Z,13.98
2024-02-26T05:39:06.085Z,13.95
2024-02-26T05:41:34.807Z,15.10
2024-02-26T05:44:03.225Z,14.15
2024-02-26T05:46:32.913Z,14.55
2024-02-26T05:49:01.463Z,15.37
2024-02-26T05:51:29.892Z,14.52
2024-02-26T05:53:59.143Z,13.88
2024-02-26T05:56:27.542Z,14.77
2024-02-26T05:58:55.923Z,14.45
2024-02-26T06:01:25.469Z,14.70
2024-02-26T06:03:55.246Z,14.02
2024-02-26T06:06:24.803Z,13.90
2024-02-26T06:08:53.797Z,15.15
2024-02-26T06:11:23.958Z,15.00
2024-02-26T06:13:52.398Z,14.88
2024-02-26T06:16:20.767Z,15.07
2024-02-26T06:18:49.425Z,14.95
2024-02-26T06:21:19.128Z,15.23
2024-02-26T06:23:47.514Z,15.47
2024-02-26T06:26:15.900Z,14.98
2024-02-26T06:28:44.250Z,15.85
2024-02-26T06:31:12.558Z,17.13
2024-02-26T06:33:41.050Z,17.00
2024-02-26T06:36:09.902Z,17.50
2024-02-26T06:38:39.652Z,17.65
2024-02-26T06:41:08.000Z,17.05
2024-02-26T06:43:36.402Z,19.27
2024-02-26T06:46:05.164Z,18.70
2024-02-26T06:48:33.573Z,20.00
2024-02-26T06:51:02.096Z,19.55
2024-02-26T06:53:30.491Z,20.33
2024-02-26T06:56:00.213Z,19.58
2024-02-26T06:58:28.696Z,20.95
2024-02-26T07:00:57.113Z,20.90
2024-02-26T07:03:26.781Z,22.85
2024-02-26T07:05:55.410Z,21.57
2024-02-26T07:08:23.801Z,21.42
2024-02-26T07:10:52.167Z,21.77
2024-02-26T07:13:22.110Z,23.00
2024-02-26T07:15:50.444Z,22.17
2024-02-26T07:18:18.953Z,23.25
2024-02-26T07:20:47.465Z,23.27
2024-02-26T07:23:15.833Z,24.70
2024-02-26T07:25:48.380Z,23.52
2024-02-26T07:28:17.141Z,24.02
2024-02-26T07:30:47.114Z,24.17
2024-02-26T07:33:15.950Z,24.33
2024-02-26T07:35:44.394Z,23.95
2024-02-26T07:38:22.933Z,22.90
2024-02-26T07:41:03.398Z,23.52
2024-02-26T07:43:32.409Z,22.70
2024-02-26T07:46:02.141Z,23.63
2024-02-26T07:48:31.190Z,23.92
2024-02-26T07:51:01.227Z,23.25
2024-02-26T07:53:29.684Z,21.63
2024-02-26T07:55:57.988Z,20.40
2024-02-26T07:58:26.546Z,21.00
2024-02-26T08:00:55.185Z,20.48
2024-02-26T08:03:24.974Z,20.92
2024-02-26T08:05:54.172Z,18.92
2024-02-26T08:08:22.640Z,19.52
2024-02-26T08:10:51.136Z,19.17
2024-02-26T08:13:19.479Z,17.10
2024-02-26T08:15:47.784Z,16.95
2024-02-26T08:18:17.253Z,17.33
2024-02-26T08:20:47.375Z,16.43
2024-02-26T08:23:20.491Z,16.20
2024-02-26T08:25:51.318Z,16.13
2024-02-26T08:30:48.105Z,15.15
2024-02-26T08:33:16.765Z,15.38
2024-02-26T08:35:46.763Z,14.05
2024-02-26T08:38:15.159Z,13.90
2024-02-26T08:40:44.612Z,13.35
2024-02-26T08:43:12.978Z,12.95
2024-02-26T08:45:41.444Z,13.23
2024-02-26T08:48:10.302Z,12.48
2024-02-26T08:50:38.688Z,12.18
2024-02-26T08:53:08.677Z,11.95
2024-02-26T08:55:37.027Z,11.85
2024-02-26T08:58:05.786Z,12.30
2024-02-26T09:00:34.301Z,12.20
2024-02-26T09:03:05.636Z,11.00
2024-02-26T09:05:34.483Z,11.73
2024-02-26T09:08:02.972Z,10.98
2024-02-26T09:10:34.038Z,11.13
2024-02-26T09:13:02.771Z,10.65
2024-02-26T09:15:31.337Z,10.90
2024-02-26T09:18:00.635Z,11.30
2024-02-26T09:20:29.236Z,10.57
2024-02-26T09:22:57.595Z,11.38
2024-02-26T09:25:25.946Z,11.23
2024-02-26T09:27:55.661Z,11.02
2024-02-26T09:30:24.406Z,10.18
2024-02-26T09:32:52.920Z,10.60
2024-02-26T09:35:22.463Z,9.95
2024-02-26T09:37:51.642Z,10.30
2024-02-26T09:40:20.067Z,10.48
2024-02-26T09:42:48.557Z,10.95
2024-02-26T09:45:24.334Z,10.18
2024-02-26T09:47:53.137Z,9.90
2024-02-26T09:50:24.682Z,9.95
2024-02-26T09:52:55.000Z,10.07
2024-02-26T09:55:23.428Z,10.02
2024-02-26T09:57:54.616Z,10.38
2024-02-26T10:00:29.963Z,9.70
2024-02-26T10:03:00.439Z,9.75
2024-02-26T10:05:29.570Z,10.25
2024-02-26T10:08:02.250Z,10.25
2024-02-26T10:10:32.696Z,10.18
2024-02-26T10:13:02.731Z,10.27
2024-02-26T10:15:32.684Z,10.20
2024-02-26T10:18:01.357Z,10.45
2024-02-26T10:20:30.024Z,10.27
2024-02-26T10:22:58.518Z,10.77
2024-02-26T10:25:26.909Z,9.80
2024-02-26T10:27:56.812Z,9.52
2024-02-26T10:30:27.417Z,10.30
2024-02-26T10:32:58.165Z,10.23
2024-02-26T10:35:27.340Z,10.43
2024-02-26T10:37:56.042Z,10.65
2024-02-26T10:40:24.363Z,10.23
2024-02-26T10:42:52.898Z,10.43
2024-02-26T10:45:21.951Z,10.20
2024-02-26T10:47:50.508Z,10.10
2024-02-26T10:50:20.422Z,10.18
2024-02-26T10:52:48.791Z,9.80
2024-02-26T10:55:20.801Z,10.02
2024-02-26T10:57:52.793Z,10.25
2024-02-26T11:00:21.529Z,10.57
2024-02-26T11:02:50.692Z,10.75
2024-02-26T11:05:21.057Z,10.13
2024-02-26T11:07:50.011Z,9.77
2024-02-26T11:10:19.287Z,9.70
2024-02-26T11:12:48.624Z,10.52
2024-02-26T11:15:17.774Z,10.00
2024-02-26T11:17:48.681Z,9.90
2024-02-26T11:20:19.994Z,9.10
2024-02-26T11:22:48.585Z,9.65
2024-02-26T11:25:18.106Z,10.00
2024-02-26T11:27:51.657Z,9.05
2024-02-26T11:30:21.859Z,9.98
2024-02-26T11:32:52.085Z,10.18
2024-02-26T11:35:22.694Z,9.82
2024-02-26T11:37:59.210Z,9.95
2024-02-26T11:40:28.346Z,10.10
2024-02-26T11:42:57.147Z,10.40
2024-02-26T11:45:53.232Z,10.85
2024-02-26T11:48:27.354Z,10.60
2024-02-26T11:50:59.915Z,10.55
2024-02-26T11:53:32.230Z,9.93
2024-02-26T11:56:24.854Z,9.82
2024-02-26T11:59:01.337Z,10.80
2024-02-26T12:01:48.713Z,9.95
2024-02-26T12:04:21.274Z,10.15
2024-02-26T12:06:54.823Z,8.90
2024-02-26T12:09:37.445Z,9.35
2024-02-26T12:12:08.581Z,8.93
2024-02-26T12:14:40.257Z,9.02
2024-02-26T12:17:10.365Z,8.05
2024-02-26T12:19:42.957Z,7.53
2024-02-26T12:22:17.274Z,9.05
2024-02-26T12:24:45.837Z,8.30
2024-02-26T12:27:14.462Z,8.23
2024-02-26T12:29:42.997Z,8.52
2024-02-26T12:32:12.032Z,8.23
2024-02-26T12:34:40.626Z,8.63
2024-02-26T12:37:10.402Z,7.90
2024-02-26T12:39:41.702Z,8.13
2024-02-26T12:42:10.281Z,7.88
2024-02-26T12:44:40.024Z,8.10
2024-02-26T12:47:08.629Z,7.68
2024-02-26T12:49:37.266Z,7.95
2024-02-26T12:52:07.623Z,7.63
2024-02-26T12:54:39.969Z,7.20
2024-02-26T12:57:11.174Z,7.68
2024-02-26T12:59:40.155Z,7.55
2024-02-26T13:02:09.013Z,8.00
2024-02-26T13:04:37.969Z,7.78
2024-02-26T13:07:07.029Z,7.82
2024-02-26T13:09:36.813Z,7.40
2024-02-26T13:12:09.762Z,7.97
2024-02-26T13:14:38.297Z,9.35
2024-02-26T13:17:07.303Z,9.20
2024-02-26T13:19:36.474Z,7.88
2024-02-26T13:22:09.058Z,7.05
2024-02-26T13:24:38.687Z,7.00
2024-02-26T13:27:08.308Z,6.60
2024-02-26T13:29:38.290Z,8.02
2024-02-26T13:32:08.361Z,7.65
2024-02-26T13:34:37.930Z,7.25
2024-02-26T13:37:06.937Z,7.25
2024-02-26T13:39:37.393Z,7.65
2024-02-26T13:42:09.017Z,7.18
2024-02-26T13:44:40.752Z,7.53
2024-02-26T13:47:09.208Z,6.93
2024-02-26T13:49:37.672Z,7.43
2024-02-26T13:52:06.665Z,7.35
2024-02-26T13:54:35.544Z,7.45
2024-02-26T13:57:04.278Z,7.47
2024-02-26T13:59:35.518Z,6.90
2024-02-26T14:02:05.726Z,6.65
2024-02-26T14:04:34.279Z,7.18
2024-02-26T14:07:03.205Z,7.20
2024-02-26T14:09:43.464Z,6.30
2024-02-26T14:12:15.039Z,6.95
2024-02-26T14:14:43.784Z,6.78
2024-02-26T14:17:13.898Z,6.55
2024-02-26T14:19:45.497Z,6.40
2024-02-26T14:22:14.281Z,6.40
2024-02-26T14:24:42.972Z,6.70
2024-02-26T14:27:15.615Z,6.03
2024-02-26T14:29:44.324Z,6.15
2024-02-26T14:32:14.345Z,6.35
2024-02-26T14:34:43.142Z,6.40
2024-02-26T14:37:11.593Z,6.10
2024-02-26T14:39:40.941Z,6.65
2024-02-26T14:42:09.549Z,7.05
2024-02-26T14:44:38.124Z,6.70
2024-02-26T14:47:06.931Z,6.60
2024-02-26T14:49:36.921Z,7.05
2024-02-26T14:52:06.212Z,7.22
2024-02-26T14:54:38.691Z,6.60
2024-02-26T14:57:07.983Z,7.25
2024-02-26T14:59:37.791Z,7.28
2024-02-26T15:02:06.448Z,7.18
2024-02-26T15:04:36.845Z,7.38
2024-02-26T15:07:06.229Z,7.43
2024-02-26T15:09:36.700Z,7.32
2024-02-26T15:12:07.865Z,7.82
2024-02-26T15:14:37.054Z,7.78
2024-02-26T15:17:05.968Z,7.45
2024-02-26T15:19:34.409Z,7.75
2024-02-26T15:22:04.919Z,7.38
2024-02-26T15:24:33.442Z,7.28
2024-02-26T15:27:01.947Z,7.55
2024-02-26T15:29:30.487Z,8.07
2024-02-26T15:31:58.912Z,7.95
2024-02-26T15:34:27.447Z,7.70
2024-02-26T15:36:55.934Z,8.07
2024-02-26T15:39:25.657Z,7.80
2024-02-26T15:41:54.226Z,7.90
2024-02-26T15:44:22.646Z,7.93
2024-02-26T15:46:51.249Z,7.80
2024-02-26T15:49:21.039Z,8.15
2024-02-26T15:51:49.693Z,8.30
2024-02-26T15:54:18.157Z,7.88
2024-02-26T15:56:50.020Z,7.75
2024-02-26T15:59:20.641Z,7.15
2024-02-26T16:04:18.823Z,7.40
2024-02-26T16:06:51.284Z,7.85
2024-02-26T16:09:19.918Z,7.35
2024-02-26T16:11:49.663Z,7.55
2024-02-26T16:14:28.729Z,8.30
2024-02-26T16:17:03.472Z,7.70
2024-02-26T16:19:32.288Z,7.88
2024-02-26T16:22:00.705Z,7.43
2024-02-26T16:24:29.138Z,7.55
2024-02-26T16:26:58.897Z,7.18
2024-02-26T16:29:27.322Z,7.97
2024-02-26T16:31:55.745Z,7.25
2024-02-26T16:34:24.190Z,7.55
2024-02-26T16:36:52.961Z,7.80
2024-02-26T16:39:21.667Z,7.68
2024-02-26T16:41:50.389Z,8.20
2024-02-26T16:44:20.100Z,8.18
2024-02-26T16:46:48.488Z,8.07
2024-02-26T16:49:17.115Z,8.50
2024-02-26T16:51:45.549Z,7.07
2024-02-26T16:54:13.997Z,7.43
2024-02-26T16:56:42.703Z,7.38
2024-02-26T16:59:11.102Z,6.85
2024-02-26T17:01:41.212Z,8.02
2024-02-26T17:04:10.214Z,7.18
2024-02-26T17:06:38.695Z,7.60
2024-02-26T17:09:09.049Z,7.40
2024-02-26T17:11:39.566Z,7.35
2024-02-26T17:14:08.457Z,7.18
2024-02-26T17:16:37.451Z,9.13
2024-02-26T17:19:07.554Z,8.55
2024-02-26T17:21:36.091Z,7.45
2024-02-26T17:24:04.612Z,8.52
2024-02-26T17:26:32.995Z,7.22
2024-02-26T17:29:02.418Z,7.60
2024-02-26T17:31:31.234Z,7.30
2024-02-26T17:34:00.278Z,7.80
2024-02-26T17:36:30.232Z,7.53
2024-02-26T17:38:58.661Z,8.18
2024-02-26T17:41:27.125Z,7.82
2024-02-26T17:43:55.939Z,7.72
2024-02-26T17:46:24.348Z,7.57
2024-02-26T17:48:52.866Z,7.90
2024-02-26T17:51:21.330Z,8.20
2024-02-26T17:53:51.202Z,7.85
2024-02-26T17:56:19.591Z,8.00
2024-02-26T17:58:47.913Z,7.28
2024-02-26T18:01:16.389Z,8.38
2024-02-26T18:03:45.037Z,7.57
2024-02-26T18:06:13.863Z,6.88
2024-02-26T18:08:42.319Z,7.15
2024-02-26T18:11:13.893Z,7.05
2024-02-26T18:13:45.881Z,7.50
2024-02-26T18:16:14.750Z,7.25
2024-02-26T18:18:47.557Z,7.07
2024-02-26T18:21:17.799Z,6.45
2024-02-26T18:23:46.370Z,6.85
2024-02-26T18:26:20.439Z,7.05
2024-02-26T18:28:49.432Z,6.88
2024-02-26T18:31:18.029Z,6.30
2024-02-26T18:33:46.669Z,6.63
2024-02-26T18:36:17.243Z,6.20
2024-02-26T18:41:22.289Z,6.15
2024-02-26T18:43:51.943Z,5.90
2024-02-26T18:46:20.631Z,6.00
2024-02-26T18:48:49.635Z,5.72
2024-02-26T18:51:18.337Z,5.68
2024-02-26T18:53:46.889Z,5.50
2024-02-26T18:56:15.927Z,5.28
2024-02-26T18:58:45.936Z,5.38
2024-02-26T19:01:14.447Z,5.70
2024-02-26T19:03:43.256Z,5.30
2024-02-26T19:06:11.875Z,5.55
2024-02-26T19:08:40.811Z,6.15
2024-02-26T19:11:09.640Z,5.90
2024-02-26T19:13:39.849Z,5.38
2024-02-26T19:16:09.747Z,5.85
2024-02-26T19:18:38.661Z,6.15
2024-02-26T19:21:07.652Z,5.68
2024-02-26T19:23:36.746Z,5.18
2024-02-26T19:26:05.759Z,6.22
2024-02-26T19:28:34.257Z,6.05
2024-02-26T19:31:02.884Z,5.68
2024-02-26T19:33:33.325Z,5.70
2024-02-26T19:36:01.798Z,5.55
2024-02-26T19:38:30.175Z,5.57
2024-02-26T19:40:58.732Z,5.22
2024-02-26T19:43:27.212Z,5.07
2024-02-26T19:45:56.694Z,5.03
2024-02-26T19:48:25.245Z,5.28
2024-02-26T19:50:56.871Z,6.00
2024-02-26T19:53:25.561Z,5.60
2024-02-26T19:55:54.024Z,5.82
2024-02-26T19:58:22.351Z,6.00
2024-02-26T20:00:51.018Z,5.40
2024-02-26T20:03:20.361Z,5.45
2024-02-26T20:05:48.838Z,5.72
2024-02-26T20:08:19.282Z,5.20
2024-02-26T20:10:51.382Z,5.57
2024-02-26T20:13:23.268Z,5.63
2024-02-26T20:15:51.713Z,5.72
2024-02-26T20:18:20.176Z,5.75
2024-02-26T20:20:48.557Z,5.10
2024-02-26T20:23:18.713Z,5.35
2024-02-26T20:25:47.113Z,5.13
2024-02-26T20:28:15.894Z,5.75
2024-02-26T20:30:44.323Z,4.97
2024-02-26T20:33:12.916Z,5.40
2024-02-26T20:35:41.299Z,5.05
2024-02-26T20:38:09.996Z,5.10
2024-02-26T20:40:39.722Z,5.07
2024-02-26T20:43:08.067Z,5.50
2024-02-26T20:45:36.488Z,5.97
2024-02-26T20:48:06.082Z,5.25
2024-02-26T20:50:34.558Z,5.63
2024-02-26T20:53:02.979Z,5.50
2024-02-26T20:55:31.372Z,5.90
2024-02-26T20:58:01.126Z,5.50
2024-02-26T21:00:29.587Z,4.93
2024-02-26T21:02:58.261Z,5.43
2024-02-26T21:05:26.838Z,5.40
2024-02-26T21:07:55.358Z,5.20
2024-02-26T21:10:26.611Z,6.05
2024-02-26T21:12:55.114Z,5.20
2024-02-26T21:15:25.282Z,5.80
2024-02-26T21:17:53.932Z,5.50
2024-02-26T21:20:24.678Z,5.63
2024-02-26T21:25:21.907Z,5.65
2024-02-26T21:27:50.275Z,5.45
2024-02-26T21:30:18.719Z,5.93
2024-02-26T21:32:48.584Z,5.82
2024-02-26T21:35:17.355Z,5.72
2024-02-26T21:37:46.413Z,5.07
2024-02-26T21:40:15.253Z,5.60
2024-02-26T21:42:43.808Z,6.05
2024-02-26T21:45:12.794Z,5.72
2024-02-26T21:47:41.215Z,5.72
2024-02-26T21:50:12.313Z,5.55
2024-02-26T21:52:40.895Z,5.28
2024-02-26T21:55:12.504Z,5.95
2024-02-26T21:57:41.063Z,5.55
2024-02-26T22:00:10.964Z,5.47
2024-02-26T22:02:42.863Z,5.03
2024-02-26T22:05:12.962Z,5.88
2024-02-26T22:07:44.213Z,5.32
2024-02-26T22:10:12.950Z,5.53
2024-02-26T22:12:41.491Z,5.50
2024-02-26T22:15:12.293Z,5.85
2024-02-26T22:17:42.400Z,5.22
2024-02-26T22:20:13.941Z,5.47
2024-02-26T22:22:42.873Z,5.53
2024-02-26T22:25:11.489Z,5.53
2024-02-26T22:27:40.059Z,6.03
2024-02-26T22:30:10.412Z,6.03
2024-02-26T22:32:38.874Z,6.65
2024-02-26T22:35:08.035Z,5.88
2024-02-26T22:37:39.282Z,6.05
2024-02-26T22:40:10.570Z,5.55
2024-02-26T22:42:39.448Z,5.82
2024-02-26T22:45:09.155Z,5.32
2024-02-26T22:47:37.953Z,6.00
2024-02-26T22:50:07.992Z,6.30
2024-02-26T22:52:37.913Z,6.10
2024-02-26T22:55:07.716Z,6.13
2024-02-26T22:57:36.101Z,6.18
2024-02-26T23:00:26.225Z,5.85
2024-02-26T23:02:55.031Z,6.53
2024-02-26T23:05:26.415Z,5.95
2024-02-26T23:07:57.596Z,6.07
2024-02-26T23:10:26.689Z,5.80
2024-02-26T23:12:55.203Z,6.28
2024-02-26T23:15:24.272Z,6.47
2024-02-26T23:17:55.435Z,6.47
2024-02-26T23:20:25.083Z,5.85
2024-02-26T23:22:55.296Z,6.15
2024-02-26T23:25:23.884Z,6.55
2024-02-26T23:27:52.274Z,6.13
2024-02-26T23:30:20.885Z,5.70
2024-02-26T23:32:49.609Z,5.88
2024-02-26T23:35:18.302Z,7.07
2024-02-26T23:37:46.746Z,6.05
2024-02-26T23:40:17.037Z,5.90
2024-02-26T23:42:45.944Z,5.88
2024-02-26T23:45:14.726Z,6.63
2024-02-26T23:47:43.144Z,6.50
2024-02-26T23:50:12.356Z,6.05
2024-02-26T23:52:40.945Z,6.25
2024-02-26T23:55:09.769Z,6.78
2024-02-26T23:57:39.544Z,6.45
